Time;durP1;ratioP1;P1;durP2;ratioP2;P2;SDS_P1;SDS_P2;PMS_P1;PMS_P2;Temp;Humidity;BMP_temperature;BMP_pressure;BME280_temperature;BME280_humidity;BME280_pressure;Samples;Min_cycle;Max_cycle;Signal;HPM_P1;HPM_P2
2022/11/19 00:00:44;;;;;;;8.53;6.97;;;-3.30;99.90;;;;;;5024961;28;20210;-59
2022/11/19 00:03:10;;;;;;;9.13;8.20;;;-3.30;99.90;;;;;;5029112;28;20208;-57
2022/11/19 00:05:38;;;;;;;9.40;8.17;;;-3.30;99.90;;;;;;5029190;28;20562;-57
2022/11/19 00:08:04;;;;;;;9.23;7.90;;;-3.40;99.90;;;;;;5022395;28;20672;-59
2022/11/19 00:10:29;;;;;;;8.83;7.40;;;-3.40;99.90;;;;;;5037972;28;20220;-59
2022/11/19 00:12:55;;;;;;;11.00;8.10;;;-3.40;99.90;;;;;;5023776;28;20196;-59
2022/11/19 00:15:22;;;;;;;11.17;8.73;;;-3.50;99.90;;;;;;5031157;28;20213;-58
2022/11/19 00:17:48;;;;;;;9.83;7.97;;;-3.50;99.90;;;;;;5036038;28;20260;-57
2022/11/19 00:20:14;;;;;;;11.97;8.73;;;-3.50;99.90;;;;;;5033898;28;20214;-57
2022/11/19 00:22:43;;;;;;;12.30;9.23;;;-3.50;99.90;;;;;;5029744;28;20213;-57
2022/11/19 00:25:10;;;;;;;10.40;8.30;;;-3.50;99.90;;;;;;5026558;28;20228;-57
2022/11/19 00:27:35;;;;;;;16.20;9.23;;;-3.50;99.90;;;;;;5023079;28;20345;-56
2022/11/19 00:30:01;;;;;;;15.20;9.47;;;-3.60;99.90;;;;;;5022543;28;20318;-57
2022/11/19 00:32:27;;;;;;;14.47;9.50;;;-3.60;99.90;;;;;;5033090;28;20202;-57
2022/11/19 00:34:52;;;;;;;12.33;8.80;;;-3.60;99.90;;;;;;5026385;28;20190;-57
2022/11/19 00:37:18;;;;;;;12.03;9.47;;;-3.60;99.90;;;;;;5039286;28;20210;-56
2022/11/19 00:39:43;;;;;;;13.00;9.00;;;-3.60;99.90;;;;;;5034948;28;20636;-56
2022/11/19 00:42:09;;;;;;;14.63;10.40;;;-3.60;99.90;;;;;;5028483;28;20210;-60
2022/11/19 00:44:34;;;;;;;14.60;10.13;;;-3.60;99.90;;;;;;5028039;28;20199;-60
2022/11/19 00:47:00;;;;;;;13.60;9.17;;;-3.60;99.90;;;;;;5033673;28;20294;-55
2022/11/19 00:49:25;;;;;;;15.53;10.07;;;-3.60;99.90;;;;;;5036245;28;20693;-57
2022/11/19 00:51:51;;;;;;;13.83;9.77;;;-3.60;99.90;;;;;;5039131;28;20218;-57
2022/11/19 00:54:16;;;;;;;11.53;9.47;;;-3.60;99.90;;;;;;5037337;28;20230;-57
2022/11/19 00:56:42;;;;;;;15.63;9.97;;;-3.60;99.90;;;;;;5037475;28;20568;-56
2022/11/19 00:59:07;;;;;;;14.27;10.40;;;-3.70;99.90;;;;;;5038242;28;20711;-56
2022/11/19 01:01:33;;;;;;;12.53;9.47;;;-3.70;99.90;;;;;;5037481;28;20198;-55
2022/11/19 01:03:58;;;;;;;15.17;10.23;;;-3.70;99.90;;;;;;5036034;28;20205;-57
2022/11/19 01:06:24;;;;;;;19.37;10.33;;;-3.70;99.90;;;;;;5037983;28;20790;-58
2022/11/19 01:08:51;;;;;;;12.93;10.23;;;-3.70;99.90;;;;;;5038662;28;20219;-58
2022/11/19 01:11:22;;;;;;;16.07;9.37;;;-3.80;99.90;;;;;;5040784;28;20238;-56
2022/11/19 01:13:48;;;;;;;13.60;11.03;;;-3.70;99.90;;;;;;5034110;28;20242;-57
2022/11/19 01:16:20;;;;;;;15.70;10.37;;;-3.70;99.90;;;;;;5030167;28;20195;-55
2022/11/19 01:18:47;;;;;;;12.67;10.23;;;-3.70;99.90;;;;;;5024567;28;20287;-55
2022/11/19 01:21:13;;;;;;;11.23;9.63;;;-3.70;99.90;;;;;;5027376;28;20834;-56
2022/11/19 01:23:40;;;;;;;14.93;10.60;;;-3.70;99.90;;;;;;5027857;28;20243;-56
2022/11/19 01:26:07;;;;;;;16.87;10.27;;;-3.60;99.90;;;;;;5025965;28;20273;-56
2022/11/19 01:28:33;;;;;;;14.30;10.53;;;-3.70;99.90;;;;;;5027834;28;20708;-56
2022/11/19 01:30:59;;;;;;;18.10;11.87;;;-3.70;99.90;;;;;;5027902;28;20306;-57
2022/11/19 01:33:25;;;;;;;16.03;11.20;;;-3.70;99.90;;;;;;5027601;28;20206;-58
2022/11/19 01:35:58;;;;;;;16.23;11.77;;;-3.80;99.90;;;;;;5025353;28;20197;-58
2022/11/19 01:38:25;;;;;;;13.93;10.40;;;-3.80;99.90;;;;;;5027045;28;20245;-57
2022/11/19 01:40:51;;;;;;;20.30;11.30;;;-3.80;99.90;;;;;;5027672;28;20249;-55
2022/11/19 01:43:16;;;;;;;14.13;10.43;;;-3.80;99.90;;;;;;5027275;28;20208;-55
2022/11/19 01:45:48;;;;;;;18.83;11.60;;;-3.80;99.90;;;;;;5026669;28;20274;-58
2022/11/19 01:48:28;;;;;;;15.67;10.17;;;-3.90;99.90;;;;;;5025492;28;20259;-56
2022/11/19 01:51:02;;;;;;;15.43;10.70;;;-3.90;99.90;;;;;;5035826;28;20218;-54
2022/11/19 01:53:32;;;;;;;15.43;10.50;;;-3.90;99.90;;;;;;5024885;28;20206;-56
2022/11/19 01:56:02;;;;;;;15.87;10.20;;;-3.90;99.90;;;;;;5026570;28;20742;-56
2022/11/19 01:58:40;;;;;;;13.07;10.53;;;-3.90;99.90;;;;;;5026737;28;20707;-57
2022/11/19 02:01:07;;;;;;;14.77;9.73;;;-4.00;99.90;;;;;;5022989;28;20213;-56
2022/11/19 02:03:35;;;;;;;12.67;9.50;;;-4.00;99.90;;;;;;5027377;28;20206;-56
2022/11/19 02:06:02;;;;;;;13.80;10.30;;;-4.00;99.90;;;;;;5027129;28;20222;-57
2022/11/19 02:08:39;;;;;;;13.83;9.63;;;-4.00;99.90;;;;;;5026843;28;21131;-56
2022/11/19 02:11:35;;;;;;;13.97;9.57;;;-4.00;99.90;;;;;;5026125;28;20206;-56
2022/11/19 02:14:35;;;;;;;11.73;10.03;;;-4.00;99.90;;;;;;5023556;28;20211;-56
2022/11/19 02:17:28;;;;;;;15.87;10.10;;;-4.00;99.90;;;;;;5025613;28;20206;-56
2022/11/19 02:20:18;;;;;;;15.13;10.60;;;-4.00;99.90;;;;;;5025224;28;20296;-58
2022/11/19 02:23:21;;;;;;;11.17;9.63;;;-4.00;99.90;;;;;;5034200;28;20197;-56
2022/11/19 02:26:19;;;;;;;14.50;9.70;;;-4.00;99.90;;;;;;5036729;28;20206;-56
2022/11/19 02:28:53;;;;;;;16.77;9.40;;;-4.00;99.90;;;;;;5035355;28;20195;-56
2022/11/19 02:31:27;;;;;;;14.37;9.50;;;-3.90;99.90;;;;;;5033098;28;20218;-56
2022/11/19 02:34:09;;;;;;;13.97;9.63;;;-3.80;99.90;;;;;;5023443;28;20199;-56
2022/11/19 02:36:46;;;;;;;12.83;8.63;;;-3.80;99.90;;;;;;5023460;28;20233;-56
2022/11/19 02:39:25;;;;;;;11.80;9.63;;;-3.80;99.90;;;;;;5026962;28;20531;-55
2022/11/19 02:42:13;;;;;;;10.87;8.83;;;-3.90;99.90;;;;;;5026059;28;20581;-55
2022/11/19 02:44:57;;;;;;;12.73;9.47;;;-3.90;99.90;;;;;;5022772;28;20637;-56
2022/11/19 02:47:37;;;;;;;14.73;9.80;;;-3.90;99.90;;;;;;5024421;28;20191;-57
2022/11/19 02:50:10;;;;;;;11.50;9.43;;;-3.90;99.90;;;;;;5025879;28;20226;-55
2022/11/19 02:52:38;;;;;;;13.77;9.43;;;-3.90;99.90;;;;;;5025814;28;20288;-59
2022/11/19 02:55:04;;;;;;;13.13;8.80;;;-3.90;99.90;;;;;;5022148;28;20223;-56
2022/11/19 02:57:29;;;;;;;13.00;9.00;;;-3.90;99.90;;;;;;5028751;28;20227;-57
2022/11/19 03:05:53;;;;;;;14.83;10.17;;;-3.90;99.90;;;;;;5035952;28;20284;-56
2022/11/19 03:08:19;;;;;;;14.13;9.60;;;-4.00;99.90;;;;;;5035268;28;20626;-56
2022/11/19 03:11:05;;;;;;;12.57;9.83;;;-4.00;99.90;;;;;;5026548;28;20301;-56
2022/11/19 03:16:42;;;;;;;14.87;9.97;;;-4.00;99.90;;;;;;5035170;28;20259;-55
2022/11/19 03:19:26;;;;;;;10.60;8.73;;;-3.90;99.90;;;;;;5038904;28;20289;-55
2022/11/19 03:21:57;;;;;;;13.30;9.87;;;-3.90;99.90;;;;;;5039445;28;20299;-55
2022/11/19 03:24:29;;;;;;;13.60;9.17;;;-4.00;99.90;;;;;;5039229;28;20687;-56
2022/11/19 03:27:08;;;;;;;10.93;8.83;;;-4.00;99.90;;;;;;5039874;28;20665;-56
2022/11/19 03:29:37;;;;;;;12.33;9.03;;;-4.00;99.90;;;;;;5039626;28;20203;-56
2022/11/19 03:32:11;;;;;;;14.33;8.80;;;-4.00;99.90;;;;;;5036434;28;20709;-55
2022/11/19 03:34:40;;;;;;;11.33;9.00;;;-3.90;99.90;;;;;;5040812;28;20186;-55
2022/11/19 03:37:08;;;;;;;13.00;9.20;;;-3.90;99.90;;;;;;5041741;28;20560;-55
2022/11/19 03:39:36;;;;;;;13.73;8.50;;;-3.90;99.90;;;;;;5039531;28;20665;-56
2022/11/19 03:42:07;;;;;;;19.73;9.57;;;-3.90;99.90;;;;;;5039594;28;20298;-55
2022/11/19 03:44:38;;;;;;;12.33;8.77;;;-3.90;99.90;;;;;;5039939;28;20664;-55
2022/11/19 03:47:10;;;;;;;9.97;8.83;;;-3.90;99.90;;;;;;5039282;28;20639;-56
2022/11/19 03:49:40;;;;;;;11.27;8.73;;;-3.90;99.90;;;;;;5039496;28;20289;-56
2022/11/19 03:52:14;;;;;;;13.50;9.17;;;-3.90;99.90;;;;;;5038381;28;20249;-56
2022/11/19 03:54:40;;;;;;;10.53;8.03;;;-3.90;99.90;;;;;;5033954;28;20858;-56
2022/11/19 03:57:08;;;;;;;10.97;8.67;;;-3.90;99.90;;;;;;5031141;28;20589;-56
2022/11/19 03:59:34;;;;;;;11.73;8.37;;;-3.90;99.90;;;;;;5039312;28;20207;-56
2022/11/19 04:02:06;;;;;;;11.83;8.90;;;-3.90;99.90;;;;;;5039240;28;20205;-56
2022/11/19 04:04:37;;;;;;;9.20;8.10;;;-3.90;99.90;;;;;;5039403;28;20398;-56
2022/11/19 04:07:20;;;;;;;11.57;8.37;;;-3.80;99.90;;;;;;5039228;28;20340;-56
2022/11/19 04:09:46;;;;;;;9.17;7.47;;;-3.80;99.90;;;;;;5038628;28;20276;-56
2022/11/19 04:12:20;;;;;;;10.93;7.57;;;-3.80;99.90;;;;;;5037081;28;20676;-56
2022/11/19 04:14:46;;;;;;;11.77;8.10;;;-3.80;99.90;;;;;;5038597;28;20253;-56
2022/11/19 04:17:12;;;;;;;11.67;8.43;;;-3.80;99.90;;;;;;5038227;28;20276;-56
2022/11/19 04:19:37;;;;;;;11.50;8.20;;;-3.80;99.90;;;;;;5038883;28;20657;-57
2022/11/19 04:22:03;;;;;;;11.67;8.20;;;-3.90;99.90;;;;;;5038711;28;20833;-55
2022/11/19 04:24:28;;;;;;;11.43;8.83;;;-3.90;99.90;;;;;;5036897;28;20215;-56
2022/11/19 04:26:54;;;;;;;13.23;9.67;;;-3.90;99.90;;;;;;5037111;28;20278;-55
2022/11/19 04:29:19;;;;;;;12.80;9.67;;;-3.90;99.90;;;;;;5038305;28;20746;-56
2022/11/19 04:31:45;;;;;;;16.33;10.53;;;-3.90;99.90;;;;;;5038227;28;20306;-55
2022/11/19 04:34:11;;;;;;;12.80;9.87;;;-3.90;99.90;;;;;;5038577;28;20211;-55
2022/11/19 04:36:39;;;;;;;12.73;10.83;;;-3.90;99.90;;;;;;5039377;28;20252;-55
2022/11/19 04:39:05;;;;;;;12.30;9.30;;;-3.90;99.90;;;;;;5037361;28;20686;-55
2022/11/19 04:41:32;;;;;;;16.10;11.17;;;-3.90;99.90;;;;;;5038578;28;20199;-55
2022/11/19 04:43:58;;;;;;;18.43;12.00;;;-3.90;99.90;;;;;;5036778;28;20379;-55
2022/11/19 04:46:24;;;;;;;13.77;10.10;;;-3.90;99.90;;;;;;5037755;28;20613;-55
2022/11/19 04:48:50;;;;;;;14.97;10.80;;;-3.90;99.90;;;;;;5031149;28;20197;-55
2022/11/19 04:51:16;;;;;;;12.37;9.80;;;-3.90;99.90;;;;;;5021438;28;20224;-55
2022/11/19 04:53:42;;;;;;;16.03;11.07;;;-3.80;99.90;;;;;;5026364;28;20303;-55
2022/11/19 04:56:08;;;;;;;13.80;9.83;;;-3.80;99.90;;;;;;5029979;28;20205;-55
2022/11/19 04:58:34;;;;;;;16.17;9.47;;;-3.80;99.90;;;;;;5026982;28;20621;-56
2022/11/19 05:01:00;;;;;;;14.77;10.73;;;-3.90;99.90;;;;;;5027722;28;20680;-56
2022/11/19 05:03:25;;;;;;;17.23;10.80;;;-3.90;99.90;;;;;;5027364;28;20546;-56
2022/11/19 05:05:51;;;;;;;13.13;10.00;;;-3.90;99.90;;;;;;5026886;28;20202;-56
2022/11/19 05:08:16;;;;;;;12.50;9.70;;;-3.90;99.90;;;;;;5027581;28;20201;-56
2022/11/19 05:10:45;;;;;;;13.13;9.87;;;-3.90;99.90;;;;;;5030260;28;20218;-56
2022/11/19 05:13:11;;;;;;;14.07;10.17;;;-3.80;99.90;;;;;;5037640;28;20295;-56
2022/11/19 05:15:36;;;;;;;12.63;10.03;;;-3.80;99.90;;;;;;5040207;28;20292;-56
2022/11/19 05:18:02;;;;;;;18.13;11.47;;;-3.80;99.90;;;;;;5032669;28;20207;-58
2022/11/19 05:20:27;;;;;;;14.17;10.23;;;-3.80;99.90;;;;;;5039879;28;20678;-56
2022/11/19 05:22:53;;;;;;;13.80;10.37;;;-3.80;99.90;;;;;;5034485;28;20279;-56
2022/11/19 05:25:19;;;;;;;12.90;9.23;;;-3.70;99.90;;;;;;5037396;28;20214;-56
2022/11/19 05:27:44;;;;;;;15.30;10.83;;;-3.70;99.90;;;;;;5037210;28;20209;-56
2022/11/19 05:30:10;;;;;;;12.77;10.07;;;-3.70;99.90;;;;;;5035754;28;20706;-55
2022/11/19 05:32:36;;;;;;;14.30;10.70;;;-3.60;99.90;;;;;;5036945;28;20225;-55
2022/11/19 05:35:02;;;;;;;13.53;9.50;;;-3.60;99.90;;;;;;5036956;28;20223;-55
2022/11/19 05:37:28;;;;;;;12.60;9.33;;;-3.60;99.90;;;;;;5035606;28;20198;-55
2022/11/19 05:39:53;;;;;;;11.20;8.80;;;-3.60;99.90;;;;;;5035852;28;20350;-55
2022/11/19 05:42:19;;;;;;;12.20;9.70;;;-3.70;99.90;;;;;;5036279;28;20201;-55
2022/11/19 05:44:44;;;;;;;14.73;10.00;;;-3.70;99.90;;;;;;5035194;28;20282;-56
2022/11/19 05:47:10;;;;;;;12.90;9.23;;;-3.70;99.90;;;;;;5036949;28;20207;-55
2022/11/19 05:49:35;;;;;;;11.67;9.30;;;-3.70;99.90;;;;;;5037001;28;20198;-56
2022/11/19 05:52:01;;;;;;;15.53;10.03;;;-3.80;99.90;;;;;;5036366;28;20866;-56
2022/11/19 05:54:26;;;;;;;12.93;9.50;;;-3.80;99.90;;;;;;5036459;28;20658;-55
2022/11/19 05:56:52;;;;;;;9.83;8.30;;;-3.80;99.90;;;;;;5034096;28;20215;-56
2022/11/19 05:59:19;;;;;;;12.43;8.67;;;-3.80;99.90;;;;;;5036356;28;20211;-56
2022/11/19 06:01:45;;;;;;;10.23;8.60;;;-3.90;99.90;;;;;;5036593;28;20520;-56
2022/11/19 06:04:10;;;;;;;12.33;8.67;;;-3.90;99.90;;;;;;5027056;28;20211;-56
2022/11/19 06:06:48;;;;;;;11.07;8.93;;;-3.90;99.90;;;;;;5029643;28;20203;-56
2022/11/19 06:09:19;;;;;;;13.20;7.67;;;-3.90;99.90;;;;;;5023987;28;20207;-55
2022/11/19 06:11:48;;;;;;;10.67;7.67;;;-4.00;99.90;;;;;;5029089;28;20236;-56
2022/11/19 06:14:23;;;;;;;10.47;7.80;;;-4.00;99.90;;;;;;5031846;28;20198;-56
2022/11/19 06:16:56;;;;;;;11.40;8.53;;;-4.00;99.90;;;;;;5034997;28;20218;-55
2022/11/19 06:19:22;;;;;;;11.63;8.27;;;-4.00;99.90;;;;;;5033638;28;20203;-56
2022/11/19 06:21:49;;;;;;;11.77;7.33;;;-4.00;99.90;;;;;;5035956;28;20201;-55
2022/11/19 06:24:14;;;;;;;11.33;7.87;;;-4.00;99.90;;;;;;5036051;28;20920;-57
2022/11/19 06:26:41;;;;;;;10.30;7.60;;;-4.10;99.90;;;;;;5036562;28;20263;-57
2022/11/19 06:29:06;;;;;;;11.00;8.40;;;-4.00;99.90;;;;;;5035950;28;20309;-56
2022/11/19 06:31:32;;;;;;;10.30;7.77;;;-4.00;99.90;;;;;;5033820;28;20313;-55
2022/11/19 06:33:58;;;;;;;11.70;8.33;;;-4.00;99.90;;;;;;5035891;28;20286;-56
2022/11/19 06:36:24;;;;;;;11.17;7.20;;;-4.00;99.90;;;;;;5036065;28;20272;-57
2022/11/19 06:38:49;;;;;;;12.30;8.33;;;-3.90;99.90;;;;;;5036191;28;20643;-55
2022/11/19 06:41:15;;;;;;;10.27;8.27;;;-3.90;99.90;;;;;;5036006;28;20255;-57
2022/11/19 06:43:41;;;;;;;11.27;7.87;;;-3.90;99.90;;;;;;5034297;28;20562;-57
2022/11/19 06:46:08;;;;;;;10.97;7.37;;;-3.90;99.90;;;;;;5027225;28;20274;-56
2022/11/19 06:48:34;;;;;;;10.80;8.80;;;-3.90;99.90;;;;;;5035867;28;20222;-55
2022/11/19 06:51:00;;;;;;;12.57;7.17;;;-3.90;99.90;;;;;;5035757;28;20559;-55
2022/11/19 06:53:26;;;;;;;10.27;7.57;;;-3.90;99.90;;;;;;5037068;28;20203;-54
2022/11/19 06:56:00;;;;;;;10.27;7.03;;;-3.90;99.90;;;;;;5039899;28;20677;-55
2022/11/19 06:58:26;;;;;;;8.87;7.43;;;-3.90;99.90;;;;;;5037585;28;20217;-55
2022/11/19 07:00:52;;;;;;;8.67;6.40;;;-3.90;99.90;;;;;;5042020;28;20201;-55
2022/11/19 07:03:18;;;;;;;9.87;7.23;;;-3.90;99.90;;;;;;5036955;28;20256;-54
2022/11/19 07:05:45;;;;;;;10.77;7.23;;;-3.90;99.90;;;;;;5039423;28;20202;-55
2022/11/19 07:08:10;;;;;;;15.33;6.90;;;-3.90;99.90;;;;;;5037538;28;20221;-55
2022/11/19 07:10:36;;;;;;;8.47;6.43;;;-3.90;99.90;;;;;;5039470;28;20218;-55
2022/11/19 07:13:01;;;;;;;6.93;6.17;;;-3.90;99.90;;;;;;5039379;28;20264;-56
2022/11/19 07:15:27;;;;;;;9.83;6.53;;;-3.90;99.90;;;;;;5039360;28;20525;-57
2022/11/19 07:17:53;;;;;;;8.33;6.00;;;-3.90;99.90;;;;;;5039349;28;20207;-56
2022/11/19 07:20:19;;;;;;;9.60;6.83;;;-3.90;99.90;;;;;;5039482;28;20252;-57
2022/11/19 07:22:44;;;;;;;8.30;6.33;;;-3.90;99.90;;;;;;5037384;28;20198;-56
2022/11/19 07:25:13;;;;;;;7.03;5.23;;;-3.80;99.90;;;;;;5039249;28;20619;-56
2022/11/19 07:27:40;;;;;;;6.47;5.77;;;-3.60;99.90;;;;;;5038782;28;20256;-56
2022/11/19 07:30:06;;;;;;;8.10;5.63;;;-3.50;99.90;;;;;;5039516;28;20226;-55
2022/11/19 07:32:32;;;;;;;11.43;6.50;;;-3.40;99.90;;;;;;5036989;28;20221;-56
2022/11/19 07:34:58;;;;;;;6.50;4.90;;;-3.30;99.90;;;;;;5035661;28;20298;-55
2022/11/19 07:37:24;;;;;;;8.80;6.83;;;-3.30;99.90;;;;;;5027514;28;20725;-55
2022/11/19 07:39:49;;;;;;;7.60;6.07;;;-3.20;99.90;;;;;;5028942;28;20563;-55
2022/11/19 07:45:02;;;;;;;8.83;6.10;;;-3.00;99.90;;;;;;5027529;28;20237;-55
2022/11/19 07:47:28;;;;;;;9.80;5.67;;;-2.90;99.90;;;;;;5029744;28;20194;-56
2022/11/19 07:49:53;;;;;;;7.87;6.07;;;-2.80;99.90;;;;;;5029448;28;20298;-55
2022/11/19 07:52:20;;;;;;;8.33;6.37;;;-2.70;99.90;;;;;;5027287;28;20195;-55
2022/11/19 07:54:45;;;;;;;8.50;6.23;;;-2.50;99.90;;;;;;5028628;28;20211;-55
2022/11/19 07:57:11;;;;;;;7.07;5.80;;;-2.40;99.90;;;;;;5028783;28;20272;-55
2022/11/19 07:59:36;;;;;;;8.47;5.73;;;-2.30;99.90;;;;;;5028930;28;20551;-55
2022/11/19 08:02:02;;;;;;;10.30;5.80;;;-2.20;99.90;;;;;;5028446;28;20219;-55
2022/11/19 08:04:27;;;;;;;6.90;5.47;;;-2.20;99.90;;;;;;5028484;28;20268;-55
2022/11/19 08:06:53;;;;;;;8.33;5.80;;;-2.10;99.90;;;;;;5027300;28;20208;-55
2022/11/19 08:09:19;;;;;;;8.87;5.80;;;-2.10;99.90;;;;;;5029246;28;20760;-54
2022/11/19 08:11:44;;;;;;;9.00;6.47;;;-2.10;99.90;;;;;;5029322;28;20220;-56
2022/11/19 08:14:12;;;;;;;9.20;6.53;;;-2.00;99.90;;;;;;5028995;28;20274;-55
2022/11/19 08:19:22;;;;;;;8.80;5.53;;;-1.90;99.90;;;;;;5028947;28;20293;-55
2022/11/19 08:21:47;;;;;;;6.30;5.33;;;-1.90;99.90;;;;;;5031258;28;20294;-56
2022/11/19 08:24:15;;;;;;;5.57;4.87;;;-1.80;99.90;;;;;;5028596;28;20204;-55
2022/11/19 08:26:41;;;;;;;6.53;5.23;;;-1.70;99.90;;;;;;5022913;28;20666;-55
2022/11/19 08:29:07;;;;;;;6.30;5.47;;;-1.70;99.90;;;;;;5028729;28;20678;-55
2022/11/19 08:31:33;;;;;;;8.10;5.83;;;-1.60;99.90;;;;;;5028877;28;20211;-55
2022/11/19 08:34:00;;;;;;;6.37;5.67;;;-1.60;99.90;;;;;;5029220;28;20203;-56
2022/11/19 08:36:26;;;;;;;6.43;4.93;;;-1.50;99.90;;;;;;5029825;28;20183;-57
2022/11/19 08:38:54;;;;;;;5.23;4.70;;;-1.40;99.90;;;;;;5026684;28;20199;-56
2022/11/19 08:44:04;;;;;;;4.20;3.33;;;-1.20;99.90;;;;;;5028230;28;20258;-56
2022/11/19 08:46:30;;;;;;;7.07;5.67;;;-1.10;99.90;;;;;;5028043;28;20516;-56
2022/11/19 08:48:55;;;;;;;9.20;4.70;;;-1.10;99.90;;;;;;5028691;28;20202;-54
2022/11/19 08:51:21;;;;;;;5.30;4.07;;;-1.00;99.90;;;;;;5028337;28;20294;-56
2022/11/19 08:53:46;;;;;;;5.57;4.13;;;-1.00;99.90;;;;;;5029177;28;20286;-54
2022/11/19 08:56:11;;;;;;;5.27;4.20;;;-1.00;99.90;;;;;;5028571;28;20629;-53
2022/11/19 08:58:37;;;;;;;6.20;4.90;;;-1.00;99.90;;;;;;5026329;28;20236;-54
2022/11/19 09:01:10;;;;;;;8.90;4.80;;;-1.00;99.90;;;;;;5027866;28;20231;-54
2022/11/19 09:03:36;;;;;;;6.33;4.67;;;-1.00;99.90;;;;;;5028151;28;20211;-54
2022/11/19 09:06:02;;;;;;;3.90;3.07;;;-1.00;99.90;;;;;;5027412;28;20199;-54
2022/11/19 09:08:27;;;;;;;7.50;4.47;;;-0.90;99.90;;;;;;5027421;28;20630;-54
2022/11/19 09:10:53;;;;;;;5.30;3.53;;;-0.90;99.90;;;;;;5026087;28;20298;-54
2022/11/19 09:13:18;;;;;;;4.27;3.53;;;-0.90;99.90;;;;;;5028366;28;20558;-54
2022/11/19 09:15:47;;;;;;;6.53;4.90;;;-0.90;99.90;;;;;;5027507;28;20196;-54
2022/11/19 09:18:13;;;;;;;6.23;4.80;;;-0.80;99.90;;;;;;5028143;28;20199;-55
2022/11/19 09:20:38;;;;;;;3.07;2.77;;;-0.70;99.90;;;;;;5027985;28;20624;-54
2022/11/19 09:23:04;;;;;;;4.87;3.37;;;-0.60;99.90;;;;;;5025564;28;20218;-54
2022/11/19 09:25:29;;;;;;;6.60;4.60;;;-0.60;99.90;;;;;;5027331;28;20290;-54
2022/11/19 09:27:55;;;;;;;3.50;3.17;;;-0.60;99.90;;;;;;5027308;28;20566;-54
2022/11/19 09:30:20;;;;;;;6.53;5.07;;;-0.50;99.90;;;;;;5026099;28;20285;-57
2022/11/19 09:32:46;;;;;;;4.33;3.93;;;-0.40;99.90;;;;;;5027065;28;20962;-55
2022/11/19 09:35:12;;;;;;;3.67;3.07;;;-0.30;99.90;;;;;;5027114;28;20336;-55
2022/11/19 09:37:38;;;;;;;4.67;3.97;;;-0.30;99.90;;;;;;5025562;28;20250;-55
2022/11/19 09:40:04;;;;;;;5.30;4.53;;;-0.20;99.90;;;;;;5027849;28;20680;-55
2022/11/19 09:43:03;;;;;;;5.40;4.43;;;-0.20;99.90;;;;;;5027721;28;20769;-55
2022/11/19 09:45:52;;;;;;;4.53;3.67;;;0.00;99.90;;;;;;5024626;28;20504;-55
2022/11/19 09:48:34;;;;;;;5.17;3.47;;;0.30;99.90;;;;;;5023375;28;20215;-55
2022/11/19 09:51:06;;;;;;;8.30;4.37;;;0.40;99.90;;;;;;5027278;28;20864;-55
2022/11/19 09:53:42;;;;;;;3.13;2.83;;;0.40;99.90;;;;;;5026889;28;20366;-55
2022/11/19 09:56:13;;;;;;;5.23;4.07;;;0.50;99.90;;;;;;5025759;28;20217;-55
2022/11/19 09:58:44;;;;;;;3.87;3.03;;;0.50;99.90;;;;;;5031419;28;20721;-55
2022/11/19 10:01:17;;;;;;;4.63;3.40;;;0.50;99.90;;;;;;5033895;28;20279;-56
2022/11/19 10:03:47;;;;;;;3.97;3.13;;;0.50;99.90;;;;;;5026146;28;20242;-55
2022/11/19 10:06:26;;;;;;;5.00;4.03;;;0.50;99.90;;;;;;5026311;28;20216;-56
2022/11/19 10:09:25;;;;;;;3.30;3.00;;;0.50;99.90;;;;;;5026730;28;20209;-56
2022/11/19 10:12:06;;;;;;;3.37;3.07;;;0.50;99.90;;;;;;5024405;28;20718;-56
2022/11/19 10:15:20;;;;;;;3.67;3.37;;;0.50;99.90;;;;;;5026676;28;20318;-55
2022/11/19 10:18:06;;;;;;;2.93;2.63;;;0.50;99.90;;;;;;5022895;28;20219;-56
2022/11/19 10:20:43;;;;;;;3.40;3.00;;;0.60;99.90;;;;;;5026598;28;20223;-55
2022/11/19 10:23:26;;;;;;;2.83;2.63;;;0.50;99.90;;;;;;5026644;28;20259;-56
2022/11/19 10:25:59;;;;;;;2.43;1.60;;;0.60;99.90;;;;;;5025171;28;20206;-57
2022/11/19 10:28:29;;;;;;;3.30;3.03;;;0.60;99.90;;;;;;5024153;28;20834;-58
2022/11/19 10:31:23;;;;;;;3.80;3.40;;;0.60;99.90;;;;;;5026167;28;20226;-56
2022/11/19 10:33:53;;;;;;;3.07;2.80;;;0.60;99.90;;;;;;5024759;28;20198;-57
2022/11/19 10:36:31;;;;;;;11.30;3.30;;;0.60;99.90;;;;;;5027082;28;20200;-56
2022/11/19 10:39:09;;;;;;;4.00;3.37;;;0.60;99.90;;;;;;5025763;28;20196;-57
2022/11/19 10:42:07;;;;;;;4.03;3.53;;;0.70;99.90;;;;;;5025765;28;20209;-57
2022/11/19 10:44:44;;;;;;;5.03;3.47;;;0.70;99.90;;;;;;5024289;28;20709;-57
2022/11/19 10:47:18;;;;;;;2.57;2.33;;;0.70;99.90;;;;;;5025045;28;20217;-56
2022/11/19 10:49:44;;;;;;;3.40;3.03;;;0.80;99.90;;;;;;5024570;28;20773;-58
2022/11/19 10:52:32;;;;;;;4.60;3.67;;;0.90;99.90;;;;;;5026413;28;20228;-58
2022/11/19 10:55:17;;;;;;;4.10;3.33;;;1.10;99.90;;;;;;5025106;28;20692;-56
2022/11/19 10:57:44;;;;;;;5.33;4.17;;;1.10;99.90;;;;;;5025690;28;20635;-56
2022/11/19 11:00:11;;;;;;;5.30;4.80;;;1.20;99.90;;;;;;5024955;28;20209;-56
2022/11/19 11:02:43;;;;;;;3.73;3.40;;;1.30;99.90;;;;;;5021934;28;20206;-55
2022/11/19 11:05:14;;;;;;;4.43;3.33;;;1.30;99.90;;;;;;5025666;28;20249;-56
2022/11/19 11:07:46;;;;;;;4.23;3.40;;;1.30;99.90;;;;;;5026332;28;20205;-57
2022/11/19 11:10:28;;;;;;;4.77;3.23;;;1.20;99.90;;;;;;5024332;28;20655;-54
2022/11/19 11:15:48;;;;;;;3.87;3.10;;;1.10;99.90;;;;;;5022823;28;20209;-54
2022/11/19 11:18:16;;;;;;;6.07;4.50;;;1.10;99.90;;;;;;5026175;28;20263;-57
2022/11/19 11:20:48;;;;;;;5.27;4.13;;;1.20;99.90;;;;;;5030810;28;20677;-55
2022/11/19 11:23:23;;;;;;;4.70;3.90;;;1.30;99.90;;;;;;5034886;28;20201;-55
2022/11/19 11:26:06;;;;;;;4.90;4.00;;;1.50;99.90;;;;;;5033728;28;20686;-55
2022/11/19 11:28:32;;;;;;;6.40;4.23;;;1.80;99.90;;;;;;5025954;28;20392;-55
2022/11/19 11:31:04;;;;;;;5.53;3.83;;;2.10;99.90;;;;;;5035547;28;20456;-55
2022/11/19 11:33:31;;;;;;;3.70;3.33;;;2.40;99.90;;;;;;5036057;28;20579;-55
2022/11/19 11:36:21;;;;;;;4.63;3.70;;;2.80;99.90;;;;;;5035876;28;20659;-55
2022/11/19 11:38:49;;;;;;;4.50;3.53;;;2.80;99.90;;;;;;5035885;28;20209;-55
2022/11/19 11:41:18;;;;;;;5.20;3.87;;;2.80;99.90;;;;;;5039563;28;20985;-55
2022/11/19 11:44:02;;;;;;;5.33;4.20;;;2.90;99.90;;;;;;5037706;28;20583;-77
2022/11/19 11:46:41;;;;;;;3.53;3.13;;;2.90;99.90;;;;;;5039347;28;20206;-55
2022/11/19 11:49:22;;;;;;;4.00;3.60;;;2.90;99.90;;;;;;5038770;28;20217;-55
2022/11/19 11:52:02;;;;;;;6.97;4.47;;;3.00;99.90;;;;;;5038513;28;20228;-55
2022/11/19 11:54:28;;;;;;;4.87;4.20;;;2.90;99.90;;;;;;5038959;28;20220;-55
2022/11/19 11:57:15;;;;;;;3.83;3.30;;;3.00;99.90;;;;;;5037800;28;20588;-55
2022/11/19 11:59:40;;;;;;;3.53;2.80;;;3.30;99.90;;;;;;5030319;28;20255;-55
2022/11/19 12:02:17;;;;;;;5.33;4.07;;;3.70;99.90;;;;;;5038585;28;20198;-56
2022/11/19 12:04:42;;;;;;;5.47;4.50;;;3.90;99.90;;;;;;5042631;28;20451;-56
2022/11/19 12:07:32;;;;;;;4.10;3.67;;;4.00;99.90;;;;;;5034624;28;20576;-55
2022/11/19 12:10:16;;;;;;;5.70;4.03;;;4.00;99.90;;;;;;5037834;28;20228;-55
2022/11/19 12:12:59;;;;;;;10.43;5.27;;;3.80;99.90;;;;;;5038211;28;20213;-55
2022/11/19 12:15:53;;;;;;;5.33;4.27;;;3.60;99.90;;;;;;5028355;28;20669;-55
2022/11/19 12:18:52;;;;;;;5.60;4.07;;;3.60;99.90;;;;;;5038164;28;20238;-54
2022/11/19 12:21:27;;;;;;;4.03;3.63;;;3.70;99.90;;;;;;5038772;28;20197;-55
2022/11/19 12:24:14;;;;;;;4.67;4.07;;;3.80;99.90;;;;;;5038497;28;20201;-55
2022/11/19 12:27:09;;;;;;;4.97;4.47;;;3.80;99.90;;;;;;5036213;28;20199;-55
2022/11/19 12:29:34;;;;;;;5.43;4.90;;;3.80;99.90;;;;;;5036566;28;20673;-55
2022/11/19 12:32:11;;;;;;;6.00;5.07;;;3.90;99.90;;;;;;5037611;28;20249;-56
2022/11/19 12:35:04;;;;;;;4.33;3.60;;;4.00;99.90;;;;;;5038060;28;20352;-55
2022/11/19 12:37:54;;;;;;;5.07;3.90;;;4.00;99.90;;;;;;5037863;28;20658;-55
2022/11/19 12:40:29;;;;;;;5.73;4.87;;;4.10;99.90;;;;;;5038408;28;20203;-55
2022/11/19 12:43:33;;;;;;;8.73;4.63;;;4.10;99.90;;;;;;5030803;28;20205;-55
2022/11/19 12:46:17;;;;;;;5.07;4.57;;;3.70;99.90;;;;;;5029032;28;20648;-55
2022/11/19 12:49:13;;;;;;;5.70;4.57;;;3.40;99.90;;;;;;5031329;28;20198;-56
2022/11/19 12:52:28;;;;;;;6.50;5.00;;;3.20;99.90;;;;;;5036242;28;20243;-55
2022/11/19 12:55:11;;;;;;;6.83;5.47;;;3.10;99.90;;;;;;5034648;28;20221;-55
2022/11/19 12:57:49;;;;;;;6.90;5.10;;;3.10;99.90;;;;;;5037924;28;20233;-55
2022/11/19 13:00:20;;;;;;;5.80;4.60;;;3.00;99.90;;;;;;5041298;28;20289;-56
2022/11/19 13:02:59;;;;;;;5.20;4.67;;;3.00;99.90;;;;;;5032994;28;20222;-55
2022/11/19 13:05:48;;;;;;;5.47;4.20;;;3.20;99.90;;;;;;5033188;28;20812;-55
2022/11/19 13:08:22;;;;;;;5.77;4.97;;;3.20;99.90;;;;;;5022320;28;20296;-54
2022/11/19 13:10:54;;;;;;;5.77;4.47;;;3.30;99.90;;;;;;5025924;28;20217;-55
2022/11/19 13:13:24;;;;;;;5.10;4.50;;;3.30;99.90;;;;;;5027618;28;20211;-54
2022/11/19 13:15:58;;;;;;;5.33;4.83;;;3.20;99.90;;;;;;5028302;28;20206;-55
2022/11/19 13:18:29;;;;;;;6.00;5.27;;;3.00;99.90;;;;;;5025158;28;20251;-54
2022/11/19 13:20:57;;;;;;;8.07;5.70;;;2.90;99.90;;;;;;5026761;28;20206;-55
2022/11/19 13:23:27;;;;;;;5.23;4.53;;;2.70;99.90;;;;;;5026968;28;20207;-55